sensor_id;sensor_type;location;lat;lon;timestamp;temperature;humidity
4366;DHT22;2196;47.422;9.656;2023-02-07T00:00:44;-1.00;99.90
4366;DHT22;2196;47.422;9.656;2023-02-07T00:03:12;-0.90;99.90
4366;DHT22;2196;47.422;9.656;2023-02-07T00:05:39;-0.80;99.90
4366;DHT22;2196;47.422;9.656;2023-02-07T00:08:07;-0.80;99.90
4366;DHT22;2196;47.422;9.656;2023-02-07T00:10:35;-0.90;99.90
4366;DHT22;2196;47.422;9.656;2023-02-07T00:13:02;-0.90;99.90
4366;DHT22;2196;47.422;9.656;2023-02-07T00:15:29;-0.90;99.90
4366;DHT22;2196;47.422;9.656;2023-02-07T00:17:56;-0.90;99.90
4366;DHT22;2196;47.422;9.656;2023-02-07T00:20:23;-1.00;99.90
4366;DHT22;2196;47.422;9.656;2023-02-07T00:22:50;-1.00;99.90
4366;DHT22;2196;47.422;9.656;2023-02-07T00:25:21;-1.00;99.90
4366;DHT22;2196;47.422;9.656;2023-02-07T00:27:48;-1.10;99.90
4366;DHT22;2196;47.422;9.656;2023-02-07T00:30:15;-1.10;99.90
4366;DHT22;2196;47.422;9.656;2023-02-07T00:32:42;-1.20;99.90
4366;DHT22;2196;47.422;9.656;2023-02-07T00:35:09;-1.20;99.90
4366;DHT22;2196;47.422;9.656;2023-02-07T00:37:36;-1.30;99.90
4366;DHT22;2196;47.422;9.656;2023-02-07T00:40:03;-1.40;99.90
4366;DHT22;2196;47.422;9.656;2023-02-07T00:42:32;-1.40;99.90
4366;DHT22;2196;47.422;9.656;2023-02-07T00:44:59;-1.40;99.90
4366;DHT22;2196;47.422;9.656;2023-02-07T00:47:29;-1.30;99.90
4366;DHT22;2196;47.422;9.656;2023-02-07T00:49:55;-1.30;99.90
4366;DHT22;2196;47.422;9.656;2023-02-07T00:52:22;-1.30;99.90
4366;DHT22;2196;47.422;9.656;2023-02-07T00:54:49;-1.30;99.90
4366;DHT22;2196;47.422;9.656;2023-02-07T00:57:16;-1.40;99.90
4366;DHT22;2196;47.422;9.656;2023-02-07T00:59:45;-1.40;99.90
4366;DHT22;2196;47.422;9.656;2023-02-07T01:02:12;-1.40;99.90
4366;DHT22;2196;47.422;9.656;2023-02-07T01:04:39;-1.50;99.90
4366;DHT22;2196;47.422;9.656;2023-02-07T01:07:06;-1.50;99.90
4366;DHT22;2196;47.422;9.656;2023-02-07T01:09:33;-1.50;99.90
4366;DHT22;2196;47.422;9.656;2023-02-07T01:12:00;-1.50;99.90
4366;DHT22;2196;47.422;9.656;2023-02-07T01:14:27;-1.60;99.90
4366;DHT22;2196;47.422;9.656;2023-02-07T01:16:56;-1.60;99.90
4366;DHT22;2196;47.422;9.656;2023-02-07T01:19:23;-1.70;99.90
4366;DHT22;2196;47.422;9.656;2023-02-07T01:21:49;-1.70;99.90
4366;DHT22;2196;47.422;9.656;2023-02-07T01:24:16;-1.70;99.90
4366;DHT22;2196;47.422;9.656;2023-02-07T01:26:43;-1.70;99.90
4366;DHT22;2196;47.422;9.656;2023-02-07T01:29:13;-1.80;99.90
4366;DHT22;2196;47.422;9.656;2023-02-07T01:31:41;-1.70;99.90
4366;DHT22;2196;47.422;9.656;2023-02-07T01:34:11;-1.70;99.90
4366;DHT22;2196;47.422;9.656;2023-02-07T01:36:39;-1.70;99.90
4366;DHT22;2196;47.422;9.656;2023-02-07T01:39:06;-1.70;99.90
4366;DHT22;2196;47.422;9.656;2023-02-07T01:41:33;-1.80;99.90
4366;DHT22;2196;47.422;9.656;2023-02-07T01:44:02;-1.90;99.90
4366;DHT22;2196;47.422;9.656;2023-02-07T01:46:31;-1.90;99.90
4366;DHT22;2196;47.422;9.656;2023-02-07T01:49:01;-2.00;99.90
4366;DHT22;2196;47.422;9.656;2023-02-07T01:51:33;-2.10;99.90
4366;DHT22;2196;47.422;9.656;2023-02-07T01:54:03;-2.10;99.90
4366;DHT22;2196;47.422;9.656;2023-02-07T01:56:31;-2.10;99.90
4366;DHT22;2196;47.422;9.656;2023-02-07T01:59:00;-2.10;99.90
4366;DHT22;2196;47.422;9.656;2023-02-07T02:01:28;-2.00;99.90
4366;DHT22;2196;47.422;9.656;2023-02-07T02:03:55;-1.90;99.90
4366;DHT22;2196;47.422;9.656;2023-02-07T02:06:25;-1.80;99.90
4366;DHT22;2196;47.422;9.656;2023-02-07T02:08:56;-1.80;99.90
4366;DHT22;2196;47.422;9.656;2023-02-07T02:14:56;-2.00;99.90
4366;DHT22;2196;47.422;9.656;2023-02-07T02:17:36;-2.00;99.90
4366;DHT22;2196;47.422;9.656;2023-02-07T02:20:40;-2.10;99.90
4366;DHT22;2196;47.422;9.656;2023-02-07T02:23:19;-2.10;99.90
4366;DHT22;2196;47.422;9.656;2023-02-07T02:26:20;-2.10;99.90
4366;DHT22;2196;47.422;9.656;2023-02-07T02:29:26;-2.20;99.90
4366;DHT22;2196;47.422;9.656;2023-02-07T02:35:12;-2.00;99.90
4366;DHT22;2196;47.422;9.656;2023-02-07T02:37:51;-2.10;99.90
4366;DHT22;2196;47.422;9.656;2023-02-07T02:40:25;-2.20;99.90
4366;DHT22;2196;47.422;9.656;2023-02-07T02:42:59;-2.30;99.90
4366;DHT22;2196;47.422;9.656;2023-02-07T02:45:31;-2.20;99.90
4366;DHT22;2196;47.422;9.656;2023-02-07T02:47:59;-2.30;99.90
4366;DHT22;2196;47.422;9.656;2023-02-07T02:50:30;-2.30;99.90
4366;DHT22;2196;47.422;9.656;2023-02-07T02:52:59;-2.30;99.90
4366;DHT22;2196;47.422;9.656;2023-02-07T02:55:47;-2.30;99.90
4366;DHT22;2196;47.422;9.656;2023-02-07T02:58:25;-2.30;99.90
4366;DHT22;2196;47.422;9.656;2023-02-07T03:01:11;-2.30;99.90
4366;DHT22;2196;47.422;9.656;2023-02-07T03:04:13;-2.40;99.90
4366;DHT22;2196;47.422;9.656;2023-02-07T03:06:59;-2.40;99.90
4366;DHT22;2196;47.422;9.656;2023-02-07T03:09:34;-2.40;99.90
4366;DHT22;2196;47.422;9.656;2023-02-07T03:12:09;-2.40;99.90
4366;DHT22;2196;47.422;9.656;2023-02-07T03:14:50;-2.50;99.90
4366;DHT22;2196;47.422;9.656;2023-02-07T03:17:21;-2.50;99.90
4366;DHT22;2196;47.422;9.656;2023-02-07T03:19:58;-2.50;99.90
4366;DHT22;2196;47.422;9.656;2023-02-07T03:22:32;-2.50;99.90
4366;DHT22;2196;47.422;9.656;2023-02-07T03:25:01;-2.40;99.90
4366;DHT22;2196;47.422;9.656;2023-02-07T03:27:30;-2.40;99.90
4366;DHT22;2196;47.422;9.656;2023-02-07T03:30:00;-2.50;99.90
4366;DHT22;2196;47.422;9.656;2023-02-07T03:32:35;-2.40;99.90
4366;DHT22;2196;47.422;9.656;2023-02-07T03:35:05;-2.40;99.90
4366;DHT22;2196;47.422;9.656;2023-02-07T03:37:38;-2.40;99.90
4366;DHT22;2196;47.422;9.656;2023-02-07T03:40:08;-2.40;99.90
4366;DHT22;2196;47.422;9.656;2023-02-07T03:42:38;-2.50;99.90
4366;DHT22;2196;47.422;9.656;2023-02-07T03:45:07;-2.40;99.90
4366;DHT22;2196;47.422;9.656;2023-02-07T03:47:35;-2.30;99.90
4366;DHT22;2196;47.422;9.656;2023-02-07T03:50:03;-2.30;99.90
4366;DHT22;2196;47.422;9.656;2023-02-07T03:52:30;-2.40;99.90
4366;DHT22;2196;47.422;9.656;2023-02-07T03:54:58;-2.40;99.90
4366;DHT22;2196;47.422;9.656;2023-02-07T03:57:27;-2.20;99.90
4366;DHT22;2196;47.422;9.656;2023-02-07T03:59:54;-2.30;99.90
4366;DHT22;2196;47.422;9.656;2023-02-07T04:02:21;-2.40;99.90
4366;DHT22;2196;47.422;9.656;2023-02-07T04:04:48;-2.50;99.90
4366;DHT22;2196;47.422;9.656;2023-02-07T04:07:16;-2.50;99.90
4366;DHT22;2196;47.422;9.656;2023-02-07T04:09:43;-2.50;99.90
4366;DHT22;2196;47.422;9.656;2023-02-07T04:12:12;-2.60;99.90
4366;DHT22;2196;47.422;9.656;2023-02-07T04:14:40;-2.60;99.90
4366;DHT22;2196;47.422;9.656;2023-02-07T04:17:07;-2.60;99.90
4366;DHT22;2196;47.422;9.656;2023-02-07T04:19:34;-2.60;99.90
4366;DHT22;2196;47.422;9.656;2023-02-07T04:22:01;-2.60;99.90
4366;DHT22;2196;47.422;9.656;2023-02-07T04:24:28;-2.60;99.90
4366;DHT22;2196;47.422;9.656;2023-02-07T04:26:57;-2.60;99.90
4366;DHT22;2196;47.422;9.656;2023-02-07T04:29:25;-2.70;99.90
4366;DHT22;2196;47.422;9.656;2023-02-07T04:31:52;-2.60;99.90
4366;DHT22;2196;47.422;9.656;2023-02-07T04:34:19;-2.50;99.90
4366;DHT22;2196;47.422;9.656;2023-02-07T04:36:46;-2.50;99.90
4366;DHT22;2196;47.422;9.656;2023-02-07T04:39:13;-2.60;99.90
4366;DHT22;2196;47.422;9.656;2023-02-07T04:41:40;-2.60;99.90
4366;DHT22;2196;47.422;9.656;2023-02-07T04:44:07;-2.70;99.90
4366;DHT22;2196;47.422;9.656;2023-02-07T04:46:36;-2.70;99.90
4366;DHT22;2196;47.422;9.656;2023-02-07T04:49:03;-2.80;99.90
4366;DHT22;2196;47.422;9.656;2023-02-07T04:51:30;-2.80;99.90
4366;DHT22;2196;47.422;9.656;2023-02-07T04:53:58;-2.80;99.90
4366;DHT22;2196;47.422;9.656;2023-02-07T04:56:25;-2.80;99.90
4366;DHT22;2196;47.422;9.656;2023-02-07T04:58:52;-2.80;99.90
4366;DHT22;2196;47.422;9.656;2023-02-07T05:01:19;-2.80;99.90
4366;DHT22;2196;47.422;9.656;2023-02-07T05:03:47;-2.80;99.90
4366;DHT22;2196;47.422;9.656;2023-02-07T05:06:14;-2.80;99.90
4366;DHT22;2196;47.422;9.656;2023-02-07T05:08:41;-2.80;99.90
4366;DHT22;2196;47.422;9.656;2023-02-07T05:11:08;-2.80;99.90
4366;DHT22;2196;47.422;9.656;2023-02-07T05:13:35;-2.80;99.90
4366;DHT22;2196;47.422;9.656;2023-02-07T05:16:03;-2.90;99.90
4366;DHT22;2196;47.422;9.656;2023-02-07T05:18:30;-2.90;99.90
4366;DHT22;2196;47.422;9.656;2023-02-07T05:20:59;-2.90;99.90
4366;DHT22;2196;47.422;9.656;2023-02-07T05:23:26;-2.90;99.90
4366;DHT22;2196;47.422;9.656;2023-02-07T05:25:53;-2.90;99.90
4366;DHT22;2196;47.422;9.656;2023-02-07T05:28:20;-2.90;99.90
4366;DHT22;2196;47.422;9.656;2023-02-07T05:30:47;-2.90;99.90
4366;DHT22;2196;47.422;9.656;2023-02-07T05:33:14;-2.80;99.90
4366;DHT22;2196;47.422;9.656;2023-02-07T05:35:42;-2.90;99.90
4366;DHT22;2196;47.422;9.656;2023-02-07T05:38:12;-3.00;99.90
4366;DHT22;2196;47.422;9.656;2023-02-07T05:40:41;-2.90;99.90
4366;DHT22;2196;47.422;9.656;2023-02-07T05:43:09;-3.00;99.90
4366;DHT22;2196;47.422;9.656;2023-02-07T05:45:36;-3.10;99.90
4366;DHT22;2196;47.422;9.656;2023-02-07T05:48:03;-3.10;99.90
4366;DHT22;2196;47.422;9.656;2023-02-07T05:50:30;-3.10;99.90
4366;DHT22;2196;47.422;9.656;2023-02-07T05:52:58;-3.10;99.90
4366;DHT22;2196;47.422;9.656;2023-02-07T05:55:26;-3.10;99.90
4366;DHT22;2196;47.422;9.656;2023-02-07T05:57:53;-3.00;99.90
4366;DHT22;2196;47.422;9.656;2023-02-07T06:00:20;-2.90;99.90
4366;DHT22;2196;47.422;9.656;2023-02-07T06:02:47;-3.00;99.90
4366;DHT22;2196;47.422;9.656;2023-02-07T06:05:16;-3.00;99.90
4366;DHT22;2196;47.422;9.656;2023-02-07T06:07:44;-3.20;99.90
4366;DHT22;2196;47.422;9.656;2023-02-07T06:10:12;-3.10;99.90
4366;DHT22;2196;47.422;9.656;2023-02-07T06:12:41;-3.10;99.90
4366;DHT22;2196;47.422;9.656;2023-02-07T06:15:10;-3.10;99.90
4366;DHT22;2196;47.422;9.656;2023-02-07T06:17:37;-3.10;99.90
4366;DHT22;2196;47.422;9.656;2023-02-07T06:20:05;-3.20;99.90
4366;DHT22;2196;47.422;9.656;2023-02-07T06:22:33;-3.30;99.90
4366;DHT22;2196;47.422;9.656;2023-02-07T06:24:59;-3.30;99.90
4366;DHT22;2196;47.422;9.656;2023-02-07T06:27:26;-3.30;99.90
4366;DHT22;2196;47.422;9.656;2023-02-07T06:29:55;-3.30;99.90
4366;DHT22;2196;47.422;9.656;2023-02-07T06:32:25;-3.30;99.90
4366;DHT22;2196;47.422;9.656;2023-02-07T06:34:52;-3.20;99.90
4366;DHT22;2196;47.422;9.656;2023-02-07T06:37:19;-3.20;99.90
4366;DHT22;2196;47.422;9.656;2023-02-07T06:39:47;-3.20;99.90
4366;DHT22;2196;47.422;9.656;2023-02-07T06:42:14;-3.20;99.90
4366;DHT22;2196;47.422;9.656;2023-02-07T06:44:41;-3.20;99.90
4366;DHT22;2196;47.422;9.656;2023-02-07T06:47:09;-3.20;99.90
4366;DHT22;2196;47.422;9.656;2023-02-07T06:49:36;-3.20;99.90
4366;DHT22;2196;47.422;9.656;2023-02-07T06:52:04;-3.20;99.90
4366;DHT22;2196;47.422;9.656;2023-02-07T06:54:31;-3.20;99.90
4366;DHT22;2196;47.422;9.656;2023-02-07T06:56:58;-3.30;99.90
4366;DHT22;2196;47.422;9.656;2023-02-07T06:59:25;-3.30;99.90
4366;DHT22;2196;47.422;9.656;2023-02-07T07:01:52;-3.20;99.90
4366;DHT22;2196;47.422;9.656;2023-02-07T07:04:20;-3.20;99.90
4366;DHT22;2196;47.422;9.656;2023-02-07T07:06:47;-3.10;99.90
4366;DHT22;2196;47.422;9.656;2023-02-07T07:09:14;-3.10;99.90
4366;DHT22;2196;47.422;9.656;2023-02-07T07:11:41;-3.10;99.90
4366;DHT22;2196;47.422;9.656;2023-02-07T07:14:09;-3.00;99.90
4366;DHT22;2196;47.422;9.656;2023-02-07T07:16:37;-3.00;99.90
4366;DHT22;2196;47.422;9.656;2023-02-07T07:19:05;-2.90;99.90
4366;DHT22;2196;47.422;9.656;2023-02-07T07:21:34;-2.80;99.90
4366;DHT22;2196;47.422;9.656;2023-02-07T07:24:01;-2.70;99.90
4366;DHT22;2196;47.422;9.656;2023-02-07T07:26:28;-2.60;99.90
4366;DHT22;2196;47.422;9.656;2023-02-07T07:28:55;-2.70;99.90
4366;DHT22;2196;47.422;9.656;2023-02-07T07:31:25;-2.60;99.90
4366;DHT22;2196;47.422;9.656;2023-02-07T07:33:53;-2.60;99.90
4366;DHT22;2196;47.422;9.656;2023-02-07T07:36:20;-2.50;99.90
4366;DHT22;2196;47.422;9.656;2023-02-07T07:38:49;-2.40;99.90
4366;DHT22;2196;47.422;9.656;2023-02-07T07:41:16;-2.40;99.90
4366;DHT22;2196;47.422;9.656;2023-02-07T07:43:42;-2.20;99.90
4366;DHT22;2196;47.422;9.656;2023-02-07T07:46:10;-2.10;99.90
4366;DHT22;2196;47.422;9.656;2023-02-07T07:48:37;-2.00;99.90
4366;DHT22;2196;47.422;9.656;2023-02-07T07:51:05;-2.00;99.90
4366;DHT22;2196;47.422;9.656;2023-02-07T07:53:32;-1.90;99.90
4366;DHT22;2196;47.422;9.656;2023-02-07T07:56:00;-1.80;99.90
4366;DHT22;2196;47.422;9.656;2023-02-07T07:58:27;-1.70;99.90
4366;DHT22;2196;47.422;9.656;2023-02-07T08:00:55;-1.60;99.90
4366;DHT22;2196;47.422;9.656;2023-02-07T08:03:22;-1.40;99.90
4366;DHT22;2196;47.422;9.656;2023-02-07T08:05:50;-1.30;99.90
4366;DHT22;2196;47.422;9.656;2023-02-07T08:08:17;-1.30;99.90
4366;DHT22;2196;47.422;9.656;2023-02-07T08:10:45;-1.30;99.90
4366;DHT22;2196;47.422;9.656;2023-02-07T08:13:14;-1.20;99.90
4366;DHT22;2196;47.422;9.656;2023-02-07T08:15:41;-1.10;99.90
4366;DHT22;2196;47.422;9.656;2023-02-07T08:18:08;-1.00;99.90
4366;DHT22;2196;47.422;9.656;2023-02-07T08:20:36;-0.60;99.90
4366;DHT22;2196;47.422;9.656;2023-02-07T08:23:03;-0.20;99.90
4366;DHT22;2196;47.422;9.656;2023-02-07T08:25:30;0.10;99.90
4366;DHT22;2196;47.422;9.656;2023-02-07T08:27:57;0.40;99.90
4366;DHT22;2196;47.422;9.656;2023-02-07T08:30:25;0.70;99.90
4366;DHT22;2196;47.422;9.656;2023-02-07T08:32:52;0.40;99.90
4366;DHT22;2196;47.422;9.656;2023-02-07T08:35:20;0.60;99.90
4366;DHT22;2196;47.422;9.656;2023-02-07T08:37:47;0.70;99.90
4366;DHT22;2196;47.422;9.656;2023-02-07T08:40:14;0.50;99.90
4366;DHT22;2196;47.422;9.656;2023-02-07T08:42:41;0.60;99.90
4366;DHT22;2196;47.422;9.656;2023-02-07T08:45:09;0.80;99.90
4366;DHT22;2196;47.422;9.656;2023-02-07T08:47:38;1.20;99.90
4366;DHT22;2196;47.422;9.656;2023-02-07T08:50:06;1.70;99.90
4366;DHT22;2196;47.422;9.656;2023-02-07T08:52:33;1.90;99.90
4366;DHT22;2196;47.422;9.656;2023-02-07T08:55:00;2.40;99.90
4366;DHT22;2196;47.422;9.656;2023-02-07T08:57:30;2.60;99.90
4366;DHT22;2196;47.422;9.656;2023-02-07T08:59:57;2.90;99.90
4366;DHT22;2196;47.422;9.656;2023-02-07T09:02:25;3.20;99.90
4366;DHT22;2196;47.422;9.656;2023-02-07T09:04:54;3.70;99.90
4366;DHT22;2196;47.422;9.656;2023-02-07T09:07:21;4.00;99.90
4366;DHT22;2196;47.422;9.656;2023-02-07T09:09:51;4.40;99.90
4366;DHT22;2196;47.422;9.656;2023-02-07T09:12:18;5.00;99.90
4366;DHT22;2196;47.422;9.656;2023-02-07T09:14:45;5.40;99.90
4366;DHT22;2196;47.422;9.656;2023-02-07T09:17:12;5.40;99.90
4366;DHT22;2196;47.422;9.656;2023-02-07T09:19:39;5.40;99.90
4366;DHT22;2196;47.422;9.656;2023-02-07T09:22:07;5.30;99.90
4366;DHT22;2196;47.422;9.656;2023-02-07T09:24:34;5.30;99.90
4366;DHT22;2196;47.422;9.656;2023-02-07T09:27:01;5.70;99.90
4366;DHT22;2196;47.422;9.656;2023-02-07T09:29:28;5.30;99.90
4366;DHT22;2196;47.422;9.656;2023-02-07T09:31:55;5.50;99.90
4366;DHT22;2196;47.422;9.656;2023-02-07T09:34:22;5.50;99.90
4366;DHT22;2196;47.422;9.656;2023-02-07T09:36:49;5.80;99.90
4366;DHT22;2196;47.422;9.656;2023-02-07T09:39:18;6.10;99.90
4366;DHT22;2196;47.422;9.656;2023-02-07T09:41:52;6.30;99.90
4366;DHT22;2196;47.422;9.656;2023-02-07T09:44:26;6.90;99.90
4366;DHT22;2196;47.422;9.656;2023-02-07T09:46:57;6.30;99.90
4366;DHT22;2196;47.422;9.656;2023-02-07T09:49:30;6.00;99.90
4366;DHT22;2196;47.422;9.656;2023-02-07T09:52:00;5.90;99.90
4366;DHT22;2196;47.422;9.656;2023-02-07T09:54:32;5.60;99.90
4366;DHT22;2196;47.422;9.656;2023-02-07T09:57:06;6.10;99.90
4366;DHT22;2196;47.422;9.656;2023-02-07T09:59:41;5.50;99.90
4366;DHT22;2196;47.422;9.656;2023-02-07T10:02:17;5.20;99.90
4366;DHT22;2196;47.422;9.656;2023-02-07T10:04:48;5.10;99.90
4366;DHT22;2196;47.422;9.656;2023-02-07T10:07:15;4.50;99.90
4366;DHT22;2196;47.422;9.656;2023-02-07T10:09:45;4.00;99.90
4366;DHT22;2196;47.422;9.656;2023-02-07T10:12:32;4.90;99.90
4366;DHT22;2196;47.422;9.656;2023-02-07T10:15:22;5.50;99.90
4366;DHT22;2196;47.422;9.656;2023-02-07T10:18:07;5.60;99.90
4366;DHT22;2196;47.422;9.656;2023-02-07T10:20:39;5.10;99.90
4366;DHT22;2196;47.422;9.656;2023-02-07T10:23:16;5.30;99.90
4366;DHT22;2196;47.422;9.656;2023-02-07T10:25:56;5.00;99.90
4366;DHT22;2196;47.422;9.656;2023-02-07T10:31:35;5.90;99.90
4366;DHT22;2196;47.422;9.656;2023-02-07T10:34:10;5.70;99.90
4366;DHT22;2196;47.422;9.656;2023-02-07T10:36:40;6.30;99.90
4366;DHT22;2196;47.422;9.656;2023-02-07T10:39:14;6.80;99.90
4366;DHT22;2196;47.422;9.656;2023-02-07T10:41:45;6.70;99.90
4366;DHT22;2196;47.422;9.656;2023-02-07T10:44:13;7.20;99.90
4366;DHT22;2196;47.422;9.656;2023-02-07T10:46:43;7.50;99.90
4366;DHT22;2196;47.422;9.656;2023-02-07T10:49:18;7.30;99.90
4366;DHT22;2196;47.422;9.656;2023-02-07T10:51:46;6.80;99.90
4366;DHT22;2196;47.422;9.656;2023-02-07T10:54:15;6.30;99.90
4366;DHT22;2196;47.422;9.656;2023-02-07T10:56:47;6.30;99.90
4366;DHT22;2196;47.422;9.656;2023-02-07T10:59:40;5.90;99.90
4366;DHT22;2196;47.422;9.656;2023-02-07T11:02:45;4.10;99.90
4366;DHT22;2196;47.422;9.656;2023-02-07T11:05:52;3.50;99.90
4366;DHT22;2196;47.422;9.656;2023-02-07T11:08:22;3.40;99.90
4366;DHT22;2196;47.422;9.656;2023-02-07T11:10:51;3.40;99.90
4366;DHT22;2196;47.422;9.656;2023-02-07T11:13:22;3.50;99.90
4366;DHT22;2196;47.422;9.656;2023-02-07T11:15:53;3.40;99.90
4366;DHT22;2196;47.422;9.656;2023-02-07T11:18:30;3.40;99.90
4366;DHT22;2196;47.422;9.656;2023-02-07T11:21:07;3.50;99.90
4366;DHT22;2196;47.422;9.656;2023-02-07T11:23:42;3.50;99.90
4366;DHT22;2196;47.422;9.656;2023-02-07T11:26:09;3.50;99.90
4366;DHT22;2196;47.422;9.656;2023-02-07T11:28:38;3.40;99.90
4366;DHT22;2196;47.422;9.656;2023-02-07T11:31:07;3.00;99.90
4366;DHT22;2196;47.422;9.656;2023-02-07T11:33:35;2.90;99.90
4366;DHT22;2196;47.422;9.656;2023-02-07T11:36:08;2.80;99.90
4366;DHT22;2196;47.422;9.656;2023-02-07T11:38:38;2.90;99.90
4366;DHT22;2196;47.422;9.656;2023-02-07T11:41:08;2.70;99.90
4366;DHT22;2196;47.422;9.656;2023-02-07T11:43:51;2.70;99.90
4366;DHT22;2196;47.422;9.656;2023-02-07T11:46:21;2.60;99.90
4366;DHT22;2196;47.422;9.656;2023-02-07T11:48:52;2.70;99.90
4366;DHT22;2196;47.422;9.656;2023-02-07T11:51:21;2.90;99.90
4366;DHT22;2196;47.422;9.656;2023-02-07T11:53:51;3.00;99.90
4366;DHT22;2196;47.422;9.656;2023-02-07T11:56:22;3.00;99.90
4366;DHT22;2196;47.422;9.656;2023-02-07T11:58:52;3.10;99.90
4366;DHT22;2196;47.422;9.656;2023-02-07T12:01:24;3.10;99.90
4366;DHT22;2196;47.422;9.656;2023-02-07T12:03:54;3.10;99.90
4366;DHT22;2196;47.422;9.656;2023-02-07T12:06:31;3.30;99.90
4366;DHT22;2196;47.422;9.656;2023-02-07T12:08:59;3.40;99.90
4366;DHT22;2196;47.422;9.656;2023-02-07T12:11:30;3.30;99.90
4366;DHT22;2196;47.422;9.656;2023-02-07T12:14:08;3.30;99.90
4366;DHT22;2196;47.422;9.656;2023-02-07T12:16:40;3.30;99.90
4366;DHT22;2196;47.422;9.656;2023-02-07T12:19:13;3.10;99.90
4366;DHT22;2196;47.422;9.656;2023-02-07T12:21:51;2.90;99.90
4366;DHT22;2196;47.422;9.656;2023-02-07T12:24:23;3.00;99.90
4366;DHT22;2196;47.422;9.656;2023-02-07T12:26:57;3.00;99.90
4366;DHT22;2196;47.422;9.656;2023-02-07T12:29:48;3.10;99.90
4366;DHT22;2196;47.422;9.656;2023-02-07T12:32:22;3.10;99.90
4366;DHT22;2196;47.422;9.656;2023-02-07T12:34:56;3.00;99.90
4366;DHT22;2196;47.422;9.656;2023-02-07T12:37:31;3.20;99.90
4366;DHT22;2196;47.422;9.656;2023-02-07T12:40:07;3.50;99.90
4366;DHT22;2196;47.422;9.656;2023-02-07T12:42:38;3.40;99.90
4366;DHT22;2196;47.422;9.656;2023-02-07T12:45:13;3.50;99.90
4366;DHT22;2196;47.422;9.656;2023-02-07T12:47:47;3.30;99.90
4366;DHT22;2196;47.422;9.656;2023-02-07T12:50:41;3.30;99.90
4366;DHT22;2196;47.422;9.656;2023-02-07T12:53:19;3.30;99.90
4366;DHT22;2196;47.422;9.656;2023-02-07T12:55:54;3.60;99.90
4366;DHT22;2196;47.422;9.656;2023-02-07T12:58:36;3.70;99.90
4366;DHT22;2196;47.422;9.656;2023-02-07T13:01:10;3.60;99.90
4366;DHT22;2196;47.422;9.656;2023-02-07T13:03:58;3.30;99.90
4366;DHT22;2196;47.422;9.656;2023-02-07T13:06:38;3.20;99.90
4366;DHT22;2196;47.422;9.656;2023-02-07T13:09:10;3.20;99.90
4366;DHT22;2196;47.422;9.656;2023-02-07T13:11:45;3.10;99.90
4366;DHT22;2196;47.422;9.656;2023-02-07T13:14:24;3.10;99.90
4366;DHT22;2196;47.422;9.656;2023-02-07T13:17:11;3.20;99.90
4366;DHT22;2196;47.422;9.656;2023-02-07T13:19:46;3.30;99.90
4366;DHT22;2196;47.422;9.656;2023-02-07T13:22:23;3.30;99.90
4366;DHT22;2196;47.422;9.656;2023-02-07T13:24:53;3.40;99.90
4366;DHT22;2196;47.422;9.656;2023-02-07T13:27:21;3.50;99.90
4366;DHT22;2196;47.422;9.656;2023-02-07T13:29:53;3.50;99.90
4366;DHT22;2196;47.422;9.656;2023-02-07T13:32:24;3.40;99.90
4366;DHT22;2196;47.422;9.656;2023-02-07T13:34:57;3.30;99.90
4366;DHT22;2196;47.422;9.656;2023-02-07T13:37:33;3.50;99.90
4366;DHT22;2196;47.422;9.656;2023-02-07T13:40:05;3.50;99.90
4366;DHT22;2196;47.422;9.656;2023-02-07T13:42:47;3.40;99.90
4366;DHT22;2196;47.422;9.656;2023-02-07T13:45:22;3.40;99.90
4366;DHT22;2196;47.422;9.656;2023-02-07T13:48:01;3.40;99.90
4366;DHT22;2196;47.422;9.656;2023-02-07T13:50:42;3.30;99.90
4366;DHT22;2196;47.422;9.656;2023-02-07T13:53:20;3.30;99.90
4366;DHT22;2196;47.422;9.656;2023-02-07T13:55:50;3.10;99.90
4366;DHT22;2196;47.422;9.656;2023-02-07T13:58:52;3.00;99.90
4366;DHT22;2196;47.422;9.656;2023-02-07T14:01:46;3.10;99.90
4366;DHT22;2196;47.422;9.656;2023-02-07T14:04:16;3.00;99.90
4366;DHT22;2196;47.422;9.656;2023-02-07T14:06:55;3.00;99.90
4366;DHT22;2196;47.422;9.656;2023-02-07T14:09:30;3.10;99.90
4366;DHT22;2196;47.422;9.656;2023-02-07T14:12:01;3.10;99.90
4366;DHT22;2196;47.422;9.656;2023-02-07T14:14:30;3.30;99.90
4366;DHT22;2196;47.422;9.656;2023-02-07T14:16:58;3.30;99.90
4366;DHT22;2196;47.422;9.656;2023-02-07T14:19:52;3.30;99.90
4366;DHT22;2196;47.422;9.656;2023-02-07T14:22:22;3.30;99.90
4366;DHT22;2196;47.422;9.656;2023-02-07T14:27:42;3.20;99.90
4366;DHT22;2196;47.422;9.656;2023-02-07T14:30:34;3.30;99.90
4366;DHT22;2196;47.422;9.656;2023-02-07T14:33:13;3.30;99.90
4366;DHT22;2196;47.422;9.656;2023-02-07T14:36:16;3.20;99.90
4366;DHT22;2196;47.422;9.656;2023-02-07T14:39:03;3.30;99.90
4366;DHT22;2196;47.422;9.656;2023-02-07T14:41:33;3.30;99.90
4366;DHT22;2196;47.422;9.656;2023-02-07T14:44:03;3.30;99.90
4366;DHT22;2196;47.422;9.656;2023-02-07T14:46:33;3.20;99.90
4366;DHT22;2196;47.422;9.656;2023-02-07T14:49:03;3.10;99.90
4366;DHT22;2196;47.422;9.656;2023-02-07T14:51:38;3.00;99.90
4366;DHT22;2196;47.422;9.656;2023-02-07T14:54:12;2.90;99.90
4366;DHT22;2196;47.422;9.656;2023-02-07T14:56:46;2.80;99.90
4366;DHT22;2196;47.422;9.656;2023-02-07T14:59:17;2.80;99.90
4366;DHT22;2196;47.422;9.656;2023-02-07T15:01:49;2.70;99.90
4366;DHT22;2196;47.422;9.656;2023-02-07T15:04:15;2.80;99.90
4366;DHT22;2196;47.422;9.656;2023-02-07T15:06:45;2.80;99.90
4366;DHT22;2196;47.422;9.656;2023-02-07T15:09:22;2.70;99.90
4366;DHT22;2196;47.422;9.656;2023-02-07T15:11:50;2.70;99.90
4366;DHT22;2196;47.422;9.656;2023-02-07T15:14:22;2.70;99.90
4366;DHT22;2196;47.422;9.656;2023-02-07T15:16:51;2.70;99.90
4366;DHT22;2196;47.422;9.656;2023-02-07T15:19:21;2.60;99.90
4366;DHT22;2196;47.422;9.656;2023-02-07T15:21:50;2.60;99.90
4366;DHT22;2196;47.422;9.656;2023-02-07T15:24:22;2.60;99.90
4366;DHT22;2196;47.422;9.656;2023-02-07T15:26:54;2.50;99.90
4366;DHT22;2196;47.422;9.656;2023-02-07T15:29:23;2.60;99.90
4366;DHT22;2196;47.422;9.656;2023-02-07T15:31:50;2.50;99.90
4366;DHT22;2196;47.422;9.656;2023-02-07T15:34:20;2.60;99.90
4366;DHT22;2196;47.422;9.656;2023-02-07T15:36:50;2.50;99.90
4366;DHT22;2196;47.422;9.656;2023-02-07T15:39:19;2.50;99.90
4366;DHT22;2196;47.422;9.656;2023-02-07T15:41:49;2.60;99.90
4366;DHT22;2196;47.422;9.656;2023-02-07T15:44:19;2.60;99.90
4366;DHT22;2196;47.422;9.656;2023-02-07T15:46:48;2.70;99.90
4366;DHT22;2196;47.422;9.656;2023-02-07T15:49:31;2.60;99.90
4366;DHT22;2196;47.422;9.656;2023-02-07T15:52:13;2.50;99.90
4366;DHT22;2196;47.422;9.656;2023-02-07T15:54:44;2.40;99.90
4366;DHT22;2196;47.422;9.656;2023-02-07T15:57:21;2.40;99.90
4366;DHT22;2196;47.422;9.656;2023-02-07T15:59:50;2.40;99.90
4366;DHT22;2196;47.422;9.656;2023-02-07T16:02:29;2.30;99.90
4366;DHT22;2196;47.422;9.656;2023-02-07T16:04:57;2.30;99.90
4366;DHT22;2196;47.422;9.656;2023-02-07T16:07:29;2.20;99.90
4366;DHT22;2196;47.422;9.656;2023-02-07T16:10:14;2.20;99.90
4366;DHT22;2196;47.422;9.656;2023-02-07T16:12:43;2.10;99.90
4366;DHT22;2196;47.422;9.656;2023-02-07T16:15:25;2.10;99.90
4366;DHT22;2196;47.422;9.656;2023-02-07T16:17:53;2.00;99.90
4366;DHT22;2196;47.422;9.656;2023-02-07T16:20:21;1.90;99.90
4366;DHT22;2196;47.422;9.656;2023-02-07T16:22:50;1.80;99.90
4366;DHT22;2196;47.422;9.656;2023-02-07T16:25:19;1.70;99.90
4366;DHT22;2196;47.422;9.656;2023-02-07T16:27:50;1.70;99.90
4366;DHT22;2196;47.422;9.656;2023-02-07T16:30:19;1.60;99.90
4366;DHT22;2196;47.422;9.656;2023-02-07T16:32:47;1.50;99.90
4366;DHT22;2196;47.422;9.656;2023-02-07T16:35:19;1.50;99.90
4366;DHT22;2196;47.422;9.656;2023-02-07T16:37:47;1.50;99.90
4366;DHT22;2196;47.422;9.656;2023-02-07T16:40:16;1.40;99.90
4366;DHT22;2196;47.422;9.656;2023-02-07T16:42:43;1.50;99.90
4366;DHT22;2196;47.422;9.656;2023-02-07T16:45:18;1.50;99.90
4366;DHT22;2196;47.422;9.656;2023-02-07T16:47:46;1.40;99.90